Time;durP1;ratioP1;P1;durP2;ratioP2;P2;SDS_P1;SDS_P2;PMS_P1;PMS_P2;Temp;Humidity;BMP_temperature;BMP_pressure;BME280_temperature;BME280_humidity;BME280_pressure;Samples;Min_cycle;Max_cycle;Signal;HPM_P1;HPM_P2
2022/01/20 00:00:18;;;;;;;9.40;5.63;;;5.70;99.90;;;;;;5024044;28;20117;-80
2022/01/20 00:02:46;;;;;;;12.43;6.38;;;5.70;99.90;;;;;;5027701;28;20107;-81
2022/01/20 00:27:22;;;;;;;9.13;5.75;;;5.80;99.90;;;;;;5014712;28;20040;-80
2022/01/20 00:37:47;;;;;;;7.65;5.50;;;5.90;99.90;;;;;;5012970;28;20399;-80
2022/01/20 00:40:13;;;;;;;8.85;5.20;;;5.90;99.90;;;;;;5017573;28;20046;-80
2022/01/20 00:42:39;;;;;;;11.82;5.78;;;5.90;99.90;;;;;;5002431;28;20048;-80
2022/01/20 00:45:05;;;;;;;8.40;5.63;;;5.90;99.90;;;;;;4986017;28;20045;-80
2022/01/20 00:47:31;;;;;;;7.50;5.10;;;5.80;99.90;;;;;;5007678;28;20046;-80
2022/01/20 00:49:57;;;;;;;7.47;5.13;;;5.80;99.90;;;;;;5001571;28;20546;-80
2022/01/20 00:52:23;;;;;;;10.30;5.40;;;5.80;99.90;;;;;;5012340;28;20022;-80
2022/01/20 00:54:48;;;;;;;8.60;5.20;;;5.80;99.90;;;;;;5036231;28;20029;-80
2022/01/20 00:57:14;;;;;;;8.30;5.43;;;5.80;99.90;;;;;;5028453;28;20494;-80
2022/01/20 00:59:40;;;;;;;9.23;4.97;;;5.80;99.90;;;;;;5023027;28;20487;-80
2022/01/20 01:02:08;;;;;;;6.97;4.50;;;5.80;99.90;;;;;;5029539;28;20029;-80
2022/01/20 01:04:35;;;;;;;8.57;5.72;;;5.80;99.90;;;;;;5034765;28;20025;-80
2022/01/20 01:09:46;;;;;;;7.45;4.30;;;5.70;99.90;;;;;;5031673;28;20419;-80
2022/01/20 01:12:22;;;;;;;7.53;4.97;;;5.70;99.90;;;;;;5030417;28;20029;-80
2022/01/20 01:14:51;;;;;;;8.07;5.35;;;5.80;99.90;;;;;;5031518;28;20021;-80
2022/01/20 01:22:30;;;;;;;5.78;4.45;;;5.70;99.90;;;;;;5033290;28;20048;-80
2022/01/20 01:24:57;;;;;;;8.18;5.20;;;5.70;99.90;;;;;;5032460;28;20053;-80
2022/01/20 01:27:25;;;;;;;8.00;5.22;;;5.70;99.90;;;;;;5026707;28;20029;-81
2022/01/20 01:30:17;;;;;;;9.05;5.30;;;5.70;99.90;;;;;;5031822;28;20018;-81
2022/01/20 01:35:10;;;;;;;9.38;5.50;;;5.60;99.90;;;;;;5029310;28;20519;-81
2022/01/20 01:38:25;;;;;;;8.02;5.18;;;5.60;99.90;;;;;;5031332;28;20045;-81
2022/01/20 01:40:28;;;;;;;8.50;5.30;;;5.60;99.90;;;;;;5032102;28;20036;-81
2022/01/20 01:42:55;;;;;;;8.73;5.28;;;5.70;99.90;;;;;;5041188;28;20076;-81
2022/01/20 01:45:20;;;;;;;7.07;4.78;;;5.70;99.90;;;;;;5030858;28;20053;-81
2022/01/20 01:47:47;;;;;;;7.63;4.82;;;5.70;99.90;;;;;;5029940;28;20525;-81
2022/01/20 01:50:14;;;;;;;9.80;5.97;;;5.70;99.90;;;;;;5030218;28;20109;-81
2022/01/20 01:52:40;;;;;;;7.57;5.43;;;5.70;99.90;;;;;;5030889;28;20434;-80
2022/01/20 01:55:07;;;;;;;9.93;5.93;;;5.70;99.90;;;;;;5032098;28;20040;-81
2022/01/20 01:57:33;;;;;;;10.57;5.72;;;5.70;99.90;;;;;;5028304;28;20474;-81
2022/01/20 01:59:58;;;;;;;9.38;5.65;;;5.60;99.90;;;;;;5029341;28;20116;-81
2022/01/20 02:02:24;;;;;;;11.27;5.68;;;5.70;99.90;;;;;;5031018;28;20029;-81
2022/01/20 02:04:51;;;;;;;8.38;5.68;;;5.60;99.90;;;;;;5028815;28;20031;-81
2022/01/20 02:20:42;;;;;;;11.45;6.25;;;5.60;99.90;;;;;;5013696;28;20556;-81
2022/01/20 02:23:08;;;;;;;9.57;5.72;;;5.60;99.90;;;;;;5027848;28;20041;-81
2022/01/20 02:25:37;;;;;;;10.50;5.88;;;5.60;99.90;;;;;;5026426;28;20025;-81
2022/01/20 02:28:10;;;;;;;10.52;5.72;;;5.60;99.90;;;;;;5029383;28;20037;-81
2022/01/20 02:30:38;;;;;;;9.55;6.00;;;5.60;99.90;;;;;;5030062;28;20026;-81
2022/01/20 02:33:10;;;;;;;10.95;6.45;;;5.60;99.90;;;;;;5029067;28;20033;-81
2022/01/20 02:35:40;;;;;;;11.07;6.13;;;5.60;99.90;;;;;;5035044;28;20017;-81
2022/01/20 02:38:11;;;;;;;11.15;6.30;;;5.60;99.90;;;;;;5030338;28;20061;-81
2022/01/20 02:45:50;;;;;;;9.00;6.00;;;5.60;99.90;;;;;;5030107;28;20143;-81
2022/01/20 02:48:16;;;;;;;12.90;6.22;;;5.50;99.90;;;;;;5028960;28;20029;-81
2022/01/20 02:50:41;;;;;;;10.38;5.32;;;5.60;99.90;;;;;;5029624;28;20022;-81
2022/01/20 02:53:07;;;;;;;10.23;6.25;;;5.60;99.90;;;;;;5029497;28;20036;-81
2022/01/20 02:55:33;;;;;;;8.38;5.32;;;5.50;99.90;;;;;;5030239;28;20028;-81
2022/01/20 02:57:59;;;;;;;10.38;6.57;;;5.50;99.90;;;;;;5029226;28;20550;-80
2022/01/20 03:00:25;;;;;;;18.30;6.95;;;5.60;99.90;;;;;;5029153;28;20029;-80
2022/01/20 03:02:50;;;;;;;10.57;6.30;;;5.60;99.90;;;;;;5029170;28;20029;-81
2022/01/20 03:05:16;;;;;;;11.73;6.15;;;5.50;99.90;;;;;;5042967;28;20505;-81
2022/01/20 03:07:43;;;;;;;9.30;6.10;;;5.50;99.90;;;;;;5028978;28;20500;-81
2022/01/20 03:10:09;;;;;;;10.65;6.35;;;5.50;99.90;;;;;;5030682;28;20140;-81
2022/01/20 03:12:34;;;;;;;9.77;5.93;;;5.60;99.90;;;;;;5029620;28;20113;-82
2022/01/20 03:15:00;;;;;;;13.55;6.50;;;5.60;99.90;;;;;;5022455;28;20104;-82
2022/01/20 03:17:26;;;;;;;13.60;6.50;;;5.60;99.90;;;;;;5025691;28;20034;-82
2022/01/20 03:19:52;;;;;;;10.57;6.60;;;5.60;99.90;;;;;;5027705;28;20457;-82
2022/01/20 03:22:18;;;;;;;15.90;6.97;;;5.60;99.90;;;;;;5030204;28;20038;-82
2022/01/20 03:24:43;;;;;;;11.20;6.20;;;5.60;99.90;;;;;;5047435;28;20033;-82
2022/01/20 03:27:09;;;;;;;10.45;6.25;;;5.60;99.90;;;;;;5027888;28;20033;-82
2022/01/20 03:29:35;;;;;;;10.40;6.80;;;5.60;99.90;;;;;;5028832;28;20491;-82
2022/01/20 03:32:02;;;;;;;12.48;7.15;;;5.50;99.90;;;;;;5026295;28;20056;-82
2022/01/20 03:34:28;;;;;;;13.18;7.57;;;5.40;99.90;;;;;;5029668;28;20067;-82
2022/01/20 03:36:53;;;;;;;13.38;8.02;;;5.30;99.90;;;;;;5024494;28;20495;-82
2022/01/20 03:39:19;;;;;;;14.00;8.27;;;5.10;99.90;;;;;;5028983;28;20037;-82
2022/01/20 03:41:45;;;;;;;15.65;8.05;;;5.10;99.90;;;;;;5028772;28;20506;-82
2022/01/20 03:44:11;;;;;;;15.00;8.30;;;5.10;99.90;;;;;;5027793;28;20025;-82
2022/01/20 03:46:37;;;;;;;12.93;7.38;;;5.10;99.90;;;;;;5028573;28;20045;-82
2022/01/20 03:49:21;;;;;;;11.23;7.03;;;5.10;99.90;;;;;;5032535;28;20457;-82
2022/01/20 03:51:47;;;;;;;14.73;7.53;;;5.20;99.90;;;;;;5038489;28;20100;-82
2022/01/20 03:54:12;;;;;;;11.80;6.22;;;5.10;99.90;;;;;;5032842;28;20175;-83
2022/01/20 03:56:38;;;;;;;12.57;7.70;;;5.10;99.90;;;;;;5028461;28;20688;-83
2022/01/20 03:59:04;;;;;;;14.70;7.75;;;5.00;99.90;;;;;;5030733;28;20064;-83
2022/01/20 04:01:29;;;;;;;11.10;6.13;;;4.90;99.90;;;;;;5029059;28;20032;-83
2022/01/20 04:03:55;;;;;;;14.45;6.15;;;4.90;99.90;;;;;;5028082;28;20230;-83
2022/01/20 04:06:22;;;;;;;10.73;6.85;;;4.80;99.90;;;;;;5020335;28;20076;-82
2022/01/20 04:08:48;;;;;;;13.30;5.95;;;4.80;99.90;;;;;;5024342;28;20021;-82
2022/01/20 04:11:21;;;;;;;10.48;6.07;;;4.70;99.90;;;;;;5027634;28;20017;-82
2022/01/20 04:13:47;;;;;;;10.45;6.22;;;4.80;99.90;;;;;;5027879;28;20040;-82
2022/01/20 04:16:40;;;;;;;12.48;6.07;;;4.60;99.90;;;;;;5029173;28;20030;-82
2022/01/20 04:19:10;;;;;;;8.90;5.65;;;4.80;99.90;;;;;;5030629;28;20116;-82
2022/01/20 04:21:38;;;;;;;8.53;5.70;;;4.70;99.90;;;;;;5030425;28;20025;-82
2022/01/20 04:24:05;;;;;;;11.40;6.28;;;4.70;99.90;;;;;;5031443;28;20163;-82
2022/01/20 04:26:33;;;;;;;12.63;6.72;;;4.70;99.90;;;;;;5032568;28;20013;-82
2022/01/20 04:28:59;;;;;;;7.28;4.57;;;4.70;99.90;;;;;;5026692;28;20495;-82
2022/01/20 04:31:27;;;;;;;8.77;5.13;;;4.70;99.90;;;;;;5025791;28;20025;-82
2022/01/20 04:33:54;;;;;;;11.40;5.88;;;4.70;99.90;;;;;;5032246;28;20123;-83
2022/01/20 04:36:19;;;;;;;10.95;6.07;;;4.60;99.90;;;;;;5031124;28;20029;-82
2022/01/20 04:38:46;;;;;;;15.32;7.00;;;4.50;99.90;;;;;;5031529;28;20031;-82
2022/01/20 04:41:12;;;;;;;14.48;7.13;;;4.50;99.90;;;;;;5035801;28;20048;-82
2022/01/20 04:43:38;;;;;;;12.70;6.90;;;4.50;99.90;;;;;;5032781;28;20491;-82
2022/01/20 04:46:15;;;;;;;12.88;6.30;;;4.40;99.90;;;;;;5028853;28;20254;-82
2022/01/20 04:59:38;;;;;;;9.75;5.85;;;4.30;99.90;;;;;;5049522;28;20078;-82
2022/01/20 05:02:04;;;;;;;10.40;5.70;;;4.30;99.90;;;;;;5049594;28;20060;-82
2022/01/20 05:04:30;;;;;;;8.93;5.43;;;4.20;99.90;;;;;;5055413;28;20548;-82
2022/01/20 05:06:57;;;;;;;10.02;5.70;;;4.30;99.90;;;;;;5030122;28;20059;-82
2022/01/20 05:09:23;;;;;;;9.27;4.95;;;4.40;99.90;;;;;;5047273;28;20040;-82
2022/01/20 05:11:58;;;;;;;9.40;5.18;;;4.50;99.90;;;;;;5032642;28;20037;-82
2022/01/20 05:14:25;;;;;;;7.05;4.25;;;4.40;99.90;;;;;;5048833;28;20025;-82
2022/01/20 05:16:55;;;;;;;9.18;4.50;;;4.40;99.90;;;;;;5049193;28;20068;-82
2022/01/20 05:19:25;;;;;;;7.85;5.28;;;4.40;99.90;;;;;;5050567;28;20102;-82
2022/01/20 05:21:51;;;;;;;8.07;4.68;;;4.40;99.90;;;;;;5048844;28;20039;-82
2022/01/20 05:24:17;;;;;;;8.57;4.90;;;4.50;99.90;;;;;;5049224;28;20060;-82
2022/01/20 05:26:43;;;;;;;8.57;5.00;;;4.50;99.90;;;;;;5048133;28;20498;-82
2022/01/20 05:29:09;;;;;;;7.05;4.25;;;4.50;99.90;;;;;;5036801;28;20041;-82
2022/01/20 05:31:34;;;;;;;7.55;4.55;;;4.50;99.90;;;;;;5031577;28;20021;-82
2022/01/20 05:34:00;;;;;;;7.78;4.30;;;4.40;99.90;;;;;;5032617;28;20051;-82
2022/01/20 05:36:26;;;;;;;10.43;4.60;;;4.50;99.90;;;;;;5031155;28;20556;-82
2022/01/20 05:38:51;;;;;;;7.13;4.28;;;4.50;99.90;;;;;;5030065;28;20490;-82
2022/01/20 05:41:18;;;;;;;8.13;4.30;;;4.50;99.90;;;;;;5031387;28;20509;-82
2022/01/20 05:43:44;;;;;;;7.53;4.43;;;4.50;99.90;;;;;;5030246;28;20021;-82
2022/01/20 05:46:10;;;;;;;6.72;3.63;;;4.40;99.90;;;;;;5024258;28;20056;-82
2022/01/20 05:48:36;;;;;;;9.35;4.72;;;4.40;99.90;;;;;;5029647;28;20029;-82
2022/01/20 05:51:06;;;;;;;6.90;3.95;;;4.40;99.90;;;;;;5030975;28;20558;-82
2022/01/20 05:53:32;;;;;;;8.32;4.55;;;4.40;99.90;;;;;;5031457;28;20033;-82
2022/01/20 05:55:58;;;;;;;8.10;4.85;;;4.40;99.90;;;;;;5033438;28;20091;-82
2022/01/20 05:58:25;;;;;;;7.25;4.10;;;4.30;99.90;;;;;;5032241;28;20407;-82
2022/01/20 06:00:50;;;;;;;10.65;4.65;;;4.20;99.90;;;;;;5030955;28;20040;-82
2022/01/20 06:06:01;;;;;;;8.38;4.10;;;4.20;99.90;;;;;;5030493;28;20025;-82
2022/01/20 06:08:26;;;;;;;7.50;4.40;;;4.30;99.90;;;;;;5031240;28;20033;-82
2022/01/20 06:10:52;;;;;;;8.95;5.05;;;4.20;99.90;;;;;;5030966;28;20041;-82
2022/01/20 06:13:18;;;;;;;8.15;5.10;;;4.10;99.90;;;;;;5027192;28;20030;-82
2022/01/20 06:15:45;;;;;;;8.13;4.90;;;4.10;99.90;;;;;;5028009;28;20517;-83
2022/01/20 06:18:11;;;;;;;8.77;4.93;;;4.20;99.90;;;;;;5029158;28;20044;-83
2022/01/20 06:20:40;;;;;;;7.07;4.13;;;4.20;99.90;;;;;;5035225;28;20022;-84
2022/01/20 06:23:08;;;;;;;7.53;4.78;;;3.90;99.90;;;;;;5035190;28;20029;-83
2022/01/20 06:25:34;;;;;;;10.52;5.22;;;4.10;99.90;;;;;;5030352;28;20119;-83
2022/01/20 06:28:00;;;;;;;8.48;4.90;;;4.10;99.90;;;;;;5031193;28;20115;-83
2022/01/20 06:30:26;;;;;;;8.95;4.43;;;4.10;99.90;;;;;;5029851;28;20021;-84
2022/01/20 06:32:53;;;;;;;8.00;4.60;;;4.20;99.90;;;;;;5028480;28;20050;-83
2022/01/20 06:35:19;;;;;;;8.75;5.10;;;4.20;99.90;;;;;;5030595;28;20017;-83
2022/01/20 06:37:45;;;;;;;8.48;4.88;;;4.20;99.90;;;;;;5029391;28;20034;-83
2022/01/20 06:40:11;;;;;;;8.45;4.60;;;4.10;99.90;;;;;;5034620;28;20025;-83
2022/01/20 06:42:38;;;;;;;8.82;4.32;;;4.10;99.90;;;;;;5030423;28;20029;-82
2022/01/20 06:45:06;;;;;;;7.05;4.32;;;4.10;99.90;;;;;;5032204;28;20029;-83
2022/01/20 06:47:32;;;;;;;6.88;4.72;;;4.10;99.90;;;;;;5027121;28;20033;-83
2022/01/20 06:49:58;;;;;;;7.75;4.63;;;4.10;99.90;;;;;;5031183;28;20515;-84
2022/01/20 06:52:24;;;;;;;12.85;4.85;;;4.00;99.90;;;;;;5029352;28;20405;-84
2022/01/20 06:54:50;;;;;;;8.20;4.70;;;4.00;99.90;;;;;;5028841;28;20116;-84
2022/01/20 06:57:15;;;;;;;9.15;4.90;;;3.90;99.90;;;;;;5025597;28;20422;-84
2022/01/20 06:59:41;;;;;;;8.02;5.00;;;4.00;99.90;;;;;;5031603;28;20405;-83
2022/01/20 07:02:08;;;;;;;8.25;5.05;;;4.00;99.90;;;;;;5029046;28;20037;-83
2022/01/20 07:04:33;;;;;;;8.20;5.18;;;4.10;99.90;;;;;;5027345;28;20049;-84
2022/01/20 07:07:00;;;;;;;9.00;4.85;;;4.00;99.90;;;;;;5031240;28;20064;-83
2022/01/20 07:09:25;;;;;;;8.57;5.60;;;3.90;99.90;;;;;;5032054;28;20486;-84
2022/01/20 07:11:51;;;;;;;8.35;4.90;;;4.00;99.90;;;;;;5027873;28;20032;-84
2022/01/20 07:14:17;;;;;;;9.10;4.93;;;4.00;99.90;;;;;;5027102;28;20501;-84
2022/01/20 07:16:43;;;;;;;9.65;5.22;;;4.00;99.90;;;;;;5029156;28;20487;-83
2022/01/20 07:19:08;;;;;;;7.32;4.63;;;3.90;99.90;;;;;;5029499;28;20018;-84
2022/01/20 07:21:34;;;;;;;7.78;4.25;;;3.90;99.90;;;;;;5026731;28;20021;-84
2022/01/20 07:24:00;;;;;;;9.20;4.75;;;4.00;99.90;;;;;;5027678;28;20021;-84
2022/01/20 07:26:26;;;;;;;9.10;5.03;;;3.90;99.90;;;;;;5029683;28;20494;-84
2022/01/20 07:28:51;;;;;;;9.80;4.68;;;3.90;99.90;;;;;;5026206;28;20407;-84
2022/01/20 07:31:22;;;;;;;9.80;4.70;;;4.00;99.90;;;;;;5029677;28;20021;-84
2022/01/20 07:33:49;;;;;;;9.93;5.10;;;4.00;99.90;;;;;;5028372;28;20047;-85
2022/01/20 07:36:14;;;;;;;11.00;5.35;;;4.00;99.90;;;;;;5028204;28;20045;-85
2022/01/20 07:38:40;;;;;;;10.77;5.63;;;4.10;99.90;;;;;;5030177;28;20410;-84
2022/01/20 07:41:06;;;;;;;8.85;4.65;;;4.00;99.90;;;;;;5027961;28;20029;-85
2022/01/20 07:43:32;;;;;;;10.60;5.25;;;4.00;99.90;;;;;;5029595;28;20107;-83
2022/01/20 07:45:57;;;;;;;8.20;4.70;;;3.90;99.90;;;;;;5023703;28;20515;-82
2022/01/20 07:48:23;;;;;;;9.20;5.65;;;4.00;99.90;;;;;;5024194;28;20041;-85
2022/01/20 07:50:49;;;;;;;9.82;4.63;;;4.00;99.90;;;;;;5026695;28;20070;-85
2022/01/20 07:53:14;;;;;;;10.98;5.70;;;4.00;99.90;;;;;;5037765;28;20482;-85
2022/01/20 07:55:40;;;;;;;7.50;4.15;;;4.00;99.90;;;;;;5027899;28;20097;-85
2022/01/20 07:58:06;;;;;;;8.05;4.65;;;4.10;99.90;;;;;;5026072;28;20777;-84
2022/01/20 08:00:33;;;;;;;7.80;4.43;;;4.10;99.90;;;;;;5025008;28;20029;-84
2022/01/20 08:02:58;;;;;;;8.82;4.88;;;4.00;99.90;;;;;;5031241;28;20052;-84
2022/01/20 08:05:24;;;;;;;7.97;4.63;;;4.10;99.90;;;;;;5026949;28;20487;-83
2022/01/20 08:07:50;;;;;;;7.07;4.07;;;4.20;99.90;;;;;;5025446;28;20049;-84
2022/01/20 08:10:16;;;;;;;7.50;4.57;;;4.30;99.90;;;;;;5027814;28;20470;-84
2022/01/20 08:12:43;;;;;;;10.55;4.93;;;4.20;99.90;;;;;;5026361;28;20498;-84
2022/01/20 08:15:12;;;;;;;8.55;4.75;;;4.10;99.90;;;;;;5019739;28;20036;-84
2022/01/20 08:17:38;;;;;;;8.27;5.18;;;4.20;99.90;;;;;;5028367;28;20102;-84
2022/01/20 08:20:06;;;;;;;8.15;4.75;;;4.10;99.90;;;;;;5026338;28;20134;-84
2022/01/20 08:22:35;;;;;;;9.90;5.22;;;4.20;99.90;;;;;;5026625;28;20036;-84
2022/01/20 08:25:12;;;;;;;9.57;5.20;;;4.20;99.90;;;;;;5026253;28;20030;-84
2022/01/20 08:27:39;;;;;;;9.52;5.50;;;4.10;99.90;;;;;;5022793;28;20051;-85
2022/01/20 08:30:11;;;;;;;10.07;4.95;;;4.20;99.90;;;;;;5022743;28;20086;-86
2022/01/20 08:32:37;;;;;;;9.77;5.65;;;4.30;99.90;;;;;;5029368;28;20355;-86
2022/01/20 08:35:06;;;;;;;7.75;4.30;;;4.30;99.90;;;;;;5027315;28;20041;-85
2022/01/20 08:37:37;;;;;;;8.50;4.70;;;4.40;99.90;;;;;;5022968;28;20053;-86
2022/01/20 08:40:13;;;;;;;7.90;4.82;;;4.30;99.90;;;;;;5028180;28;20118;-86
2022/01/20 08:42:40;;;;;;;9.65;5.55;;;4.20;99.90;;;;;;5024791;28;20037;-86
2022/01/20 08:45:09;;;;;;;9.52;4.95;;;4.30;99.90;;;;;;5024681;28;20033;-86
2022/01/20 08:47:35;;;;;;;8.05;5.32;;;4.50;99.90;;;;;;5018156;28;20029;-85
2022/01/20 08:50:01;;;;;;;8.93;4.50;;;4.60;99.90;;;;;;5027762;28;20123;-86
2022/01/20 08:52:28;;;;;;;8.23;5.00;;;4.70;99.90;;;;;;5037331;28;20021;-86
2022/01/20 08:54:57;;;;;;;8.70;5.47;;;4.70;99.90;;;;;;5025941;28;20053;-85
2022/01/20 08:57:26;;;;;;;10.02;5.45;;;4.80;99.90;;;;;;5026952;28;20168;-84
2022/01/20 08:59:52;;;;;;;8.32;4.85;;;4.80;99.90;;;;;;5026255;28;20036;-85
2022/01/20 09:02:19;;;;;;;8.55;4.30;;;4.80;99.90;;;;;;5025332;28;20513;-85
2022/01/20 09:04:44;;;;;;;7.68;4.68;;;4.80;99.90;;;;;;5024996;28;20116;-85
2022/01/20 09:07:10;;;;;;;10.65;4.93;;;4.80;99.90;;;;;;5029849;28;20105;-85
2022/01/20 09:09:42;;;;;;;7.10;4.45;;;4.70;99.90;;;;;;5028532;28;20506;-85
2022/01/20 09:17:24;;;;;;;6.22;3.50;;;4.80;99.90;;;;;;5034845;28;20445;-85
2022/01/20 09:19:50;;;;;;;6.45;4.05;;;4.80;99.90;;;;;;5028331;28;20037;-84
2022/01/20 09:22:16;;;;;;;7.15;3.55;;;4.80;99.90;;;;;;5031589;28;20030;-84
2022/01/20 09:24:44;;;;;;;6.10;3.50;;;4.90;99.90;;;;;;5029352;28;20585;-84
2022/01/20 09:27:10;;;;;;;4.88;3.50;;;4.90;99.90;;;;;;5028359;28;20021;-84
2022/01/20 09:29:36;;;;;;;5.97;3.60;;;4.80;99.90;;;;;;5027814;28;20028;-85
2022/01/20 09:32:05;;;;;;;5.68;3.47;;;4.80;99.90;;;;;;5028349;28;20486;-85
2022/01/20 09:34:31;;;;;;;5.03;3.22;;;4.90;99.90;;;;;;5028453;28;20052;-85
2022/01/20 09:36:57;;;;;;;4.85;2.95;;;4.90;99.90;;;;;;5028141;28;20104;-84
2022/01/20 09:39:22;;;;;;;4.75;3.30;;;5.00;99.90;;;;;;5034130;28;20097;-84
2022/01/20 09:41:49;;;;;;;5.10;3.15;;;5.00;99.90;;;;;;5028513;28;20457;-83
2022/01/20 09:44:15;;;;;;;5.80;3.72;;;5.00;99.90;;;;;;5027719;28;20017;-84
2022/01/20 09:46:43;;;;;;;4.88;3.20;;;5.00;99.90;;;;;;5028587;28;20453;-84
2022/01/20 09:49:11;;;;;;;4.53;3.03;;;5.10;99.90;;;;;;5029140;28;20036;-84
2022/01/20 09:51:36;;;;;;;5.13;3.35;;;5.20;99.90;;;;;;5025593;28;20017;-84
2022/01/20 09:54:03;;;;;;;3.92;2.78;;;5.30;99.90;;;;;;5026676;28;20036;-85
2022/01/20 09:56:29;;;;;;;4.97;2.95;;;5.30;99.90;;;;;;5033284;28;20040;-85
2022/01/20 09:58:54;;;;;;;4.10;2.70;;;5.20;99.90;;;;;;5027723;28;20037;-85
2022/01/20 10:01:44;;;;;;;3.85;2.45;;;5.30;99.90;;;;;;5029169;28;20112;-84
2022/01/20 10:04:23;;;;;;;4.05;2.45;;;5.40;99.90;;;;;;5034755;28;20040;-84
2022/01/20 10:07:00;;;;;;;3.47;2.78;;;5.50;99.90;;;;;;5025053;28;20029;-84
2022/01/20 10:09:28;;;;;;;3.72;2.10;;;5.50;99.90;;;;;;5027098;28;20038;-84
2022/01/20 10:11:54;;;;;;;4.10;2.78;;;5.70;99.90;;;;;;5026466;28;20022;-84
2022/01/20 10:14:20;;;;;;;5.82;2.50;;;5.60;99.90;;;;;;5022635;28;20025;-84
2022/01/20 10:16:45;;;;;;;3.20;2.40;;;5.60;99.90;;;;;;5029065;28;20481;-85
2022/01/20 10:19:30;;;;;;;4.72;2.80;;;5.50;99.90;;;;;;5031302;28;20033;-84
2022/01/20 10:21:55;;;;;;;4.85;3.00;;;5.50;99.90;;;;;;5026138;28;20091;-85
2022/01/20 10:24:21;;;;;;;5.03;3.03;;;5.40;99.90;;;;;;5030902;28;20490;-85
2022/01/20 10:26:50;;;;;;;4.70;2.60;;;5.40;99.90;;;;;;5037799;28;20022;-84
2022/01/20 10:29:16;;;;;;;5.00;3.42;;;5.50;99.90;;;;;;5031426;28;20028;-85
2022/01/20 10:31:52;;;;;;;5.82;3.78;;;5.40;99.90;;;;;;5029758;28;20093;-85
2022/01/20 10:34:33;;;;;;;6.20;4.25;;;5.30;99.90;;;;;;5033960;28;20561;-85
2022/01/20 10:37:02;;;;;;;7.35;4.80;;;5.20;99.90;;;;;;5030586;28;20025;-85
2022/01/20 10:39:39;;;;;;;6.95;4.15;;;5.20;99.90;;;;;;5026133;28;20029;-85
2022/01/20 10:42:07;;;;;;;7.97;4.95;;;5.20;99.90;;;;;;5026906;28;20026;-86
2022/01/20 10:44:40;;;;;;;9.80;4.95;;;5.20;99.90;;;;;;5027951;28;20025;-85
2022/01/20 10:47:11;;;;;;;6.82;4.32;;;5.30;99.90;;;;;;5032327;28;20045;-85
2022/01/20 10:49:37;;;;;;;8.38;5.03;;;5.30;99.90;;;;;;5028132;28;20513;-86
2022/01/20 10:52:07;;;;;;;7.13;4.65;;;5.30;99.90;;;;;;5018812;28;20037;-85
2022/01/20 10:54:37;;;;;;;10.77;5.38;;;5.30;99.90;;;;;;5034852;28;20040;-86
2022/01/20 10:57:03;;;;;;;10.20;6.03;;;5.30;99.90;;;;;;5026510;28;20032;-86
2022/01/20 10:59:28;;;;;;;8.80;5.28;;;5.30;99.90;;;;;;5031085;28;20041;-87
2022/01/20 11:02:09;;;;;;;9.82;6.35;;;5.40;99.90;;;;;;5028391;28;20034;-86
2022/01/20 11:04:36;;;;;;;10.13;5.20;;;5.40;99.90;;;;;;5026772;28;20026;-87
2022/01/20 11:07:06;;;;;;;8.77;5.55;;;5.50;99.90;;;;;;5028392;28;20049;-86
2022/01/20 11:09:36;;;;;;;10.55;5.57;;;5.40;99.90;;;;;;5028672;28;20517;-87
2022/01/20 11:12:03;;;;;;;8.85;6.32;;;5.40;99.90;;;;;;5030077;28;20048;-85
2022/01/20 11:14:30;;;;;;;10.45;6.43;;;5.50;99.90;;;;;;5027040;28;20630;-86
2022/01/20 11:16:58;;;;;;;9.43;5.60;;;5.30;99.90;;;;;;5029401;28;20025;-86
2022/01/20 11:19:25;;;;;;;8.77;5.70;;;5.40;99.90;;;;;;5035138;28;20021;-86
2022/01/20 11:21:51;;;;;;;11.30;6.35;;;5.40;99.90;;;;;;5027098;28;20237;-86
2022/01/20 11:24:25;;;;;;;8.98;5.53;;;5.30;99.90;;;;;;5026933;28;20026;-86
2022/01/20 11:26:58;;;;;;;9.02;6.35;;;5.40;99.90;;;;;;5028657;28;20030;-86
2022/01/20 11:29:41;;;;;;;10.35;5.68;;;5.30;99.90;;;;;;5026439;28;20029;-86
2022/01/20 11:32:16;;;;;;;11.48;6.80;;;5.30;99.90;;;;;;5034102;28;20032;-86
2022/01/20 11:34:57;;;;;;;12.75;7.50;;;5.30;99.90;;;;;;5027962;28;20121;-85
2022/01/20 11:37:24;;;;;;;13.23;7.45;;;5.20;99.90;;;;;;5027076;28;20041;-85
2022/01/20 11:39:54;;;;;;;12.52;7.43;;;5.20;99.90;;;;;;5025051;28;20033;-86
2022/01/20 11:42:25;;;;;;;12.57;7.87;;;5.20;99.90;;;;;;5025825;28;20124;-85
2022/01/20 11:44:52;;;;;;;14.23;7.95;;;5.30;99.90;;;;;;5030739;28;20028;-86
2022/01/20 11:47:29;;;;;;;10.77;7.57;;;5.30;99.90;;;;;;5030403;28;20095;-86
2022/01/20 11:49:57;;;;;;;12.73;7.75;;;5.40;99.90;;;;;;5024845;28;20514;-85
2022/01/20 11:52:27;;;;;;;12.60;8.25;;;5.50;99.90;;;;;;5028925;28;20018;-85
2022/01/20 11:54:53;;;;;;;13.98;7.90;;;5.40;99.90;;;;;;5025692;28;20091;-86
2022/01/20 11:57:30;;;;;;;17.15;8.50;;;5.40;99.90;;;;;;5030748;28;20037;-86
2022/01/20 12:00:01;;;;;;;17.00;10.13;;;5.40;99.90;;;;;;5025145;28;20289;-87
2022/01/20 12:02:29;;;;;;;19.08;10.20;;;5.20;99.90;;;;;;5026977;28;20637;-85
2022/01/20 12:04:55;;;;;;;15.95;9.13;;;5.30;99.90;;;;;;5026881;28;20042;-84
2022/01/20 12:07:34;;;;;;;16.88;8.23;;;5.10;99.90;;;;;;5026848;28;20026;-84
2022/01/20 12:10:26;;;;;;;14.70;8.18;;;5.20;99.90;;;;;;5033156;28;20029;-85
2022/01/20 12:12:53;;;;;;;12.23;7.50;;;5.10;99.90;;;;;;5025624;28;20026;-84
2022/01/20 12:15:22;;;;;;;13.05;7.95;;;5.20;99.90;;;;;;5024715;28;20507;-85
2022/01/20 12:17:53;;;;;;;11.75;7.10;;;5.20;99.90;;;;;;5028563;28;20026;-85
2022/01/20 12:20:20;;;;;;;12.05;7.13;;;5.20;99.90;;;;;;5040166;28;20159;-85
2022/01/20 12:22:47;;;;;;;13.82;7.53;;;5.20;99.90;;;;;;5039304;28;20025;-85
2022/01/20 12:25:19;;;;;;;13.32;7.28;;;5.10;99.90;;;;;;5028465;28;20025;-85
2022/01/20 12:27:46;;;;;;;13.60;7.90;;;5.10;99.90;;;;;;5027415;28;20034;-84
2022/01/20 12:30:24;;;;;;;14.60;8.45;;;5.10;99.90;;;;;;5028235;28;20681;-84
2022/01/20 12:33:07;;;;;;;12.65;7.68;;;5.10;99.90;;;;;;5026738;28;20025;-84
2022/01/20 12:35:36;;;;;;;13.32;7.90;;;5.20;99.90;;;;;;5031472;28;20021;-85
2022/01/20 12:38:12;;;;;;;16.73;8.38;;;5.30;99.90;;;;;;5032287;28;20029;-84
2022/01/20 12:40:38;;;;;;;15.25;8.80;;;5.20;99.90;;;;;;5025327;28;20047;-84
2022/01/20 12:43:03;;;;;;;14.63;8.68;;;5.30;99.90;;;;;;5031900;28;20109;-84
2022/01/20 12:48:15;;;;;;;10.10;6.78;;;5.40;99.90;;;;;;5023956;28;20096;-83
2022/01/20 12:51:01;;;;;;;10.30;6.32;;;5.50;99.90;;;;;;5032434;28;20029;-83
2022/01/20 12:53:35;;;;;;;13.02;6.53;;;5.40;99.90;;;;;;5029667;28;20057;-83
2022/01/20 12:56:03;;;;;;;12.07;7.32;;;5.50;99.90;;;;;;5029421;28;20021;-83
2022/01/20 12:58:28;;;;;;;12.60;7.45;;;5.50;99.90;;;;;;5030837;28;20037;-84
2022/01/20 13:01:04;;;;;;;10.38;6.45;;;5.50;99.90;;;;;;5032585;28;20379;-83
2022/01/20 13:03:41;;;;;;;8.80;5.97;;;5.60;99.90;;;;;;5030208;28;20494;-83
2022/01/20 13:06:11;;;;;;;12.13;7.22;;;5.70;99.90;;;;;;5020729;28;20036;-83
2022/01/20 13:08:40;;;;;;;13.88;7.53;;;5.80;99.90;;;;;;5031735;28;20040;-83
2022/01/20 13:11:12;;;;;;;14.90;7.70;;;5.80;99.90;;;;;;5029602;28;20021;-83
2022/01/20 13:13:38;;;;;;;11.02;6.78;;;5.70;99.90;;;;;;5032166;28;20167;-83
2022/01/20 13:16:15;;;;;;;13.00;7.63;;;5.80;99.90;;;;;;5031012;28;20041;-84
2022/01/20 13:18:54;;;;;;;11.70;6.90;;;5.80;99.90;;;;;;5027185;28;20037;-84
2022/01/20 13:21:25;;;;;;;12.48;6.97;;;5.80;99.90;;;;;;5029094;28;20044;-83
2022/01/20 13:23:57;;;;;;;13.40;7.55;;;5.80;99.90;;;;;;5031031;28;20036;-84
2022/01/20 13:26:24;;;;;;;11.60;7.00;;;5.80;99.90;;;;;;5031175;28;20026;-84
2022/01/20 13:29:05;;;;;;;10.98;6.55;;;5.80;99.90;;;;;;5028538;28;20075;-84
2022/01/20 13:31:32;;;;;;;10.93;7.22;;;5.70;99.90;;;;;;5034247;28;20021;-84
2022/01/20 13:34:15;;;;;;;12.60;7.80;;;5.70;99.90;;;;;;5030876;28;20510;-85
2022/01/20 13:36:43;;;;;;;14.40;7.93;;;5.70;99.90;;;;;;5026410;28;20061;-84
2022/01/20 13:39:10;;;;;;;12.18;7.78;;;5.70;99.90;;;;;;5028062;28;20034;-85
2022/01/20 13:41:36;;;;;;;13.40;8.13;;;5.70;99.90;;;;;;5029983;28;20049;-85
2022/01/20 13:47:02;;;;;;;10.15;6.82;;;5.70;99.90;;;;;;5026641;28;20111;-84
2022/01/20 13:49:28;;;;;;;14.73;7.22;;;5.60;99.90;;;;;;5039757;28;20032;-84
2022/01/20 13:52:09;;;;;;;12.05;7.47;;;5.70;99.90;;;;;;5030266;28;20029;-85
2022/01/20 13:54:39;;;;;;;12.85;6.88;;;5.80;99.90;;;;;;5023849;28;20029;-84
2022/01/20 13:57:04;;;;;;;11.52;6.82;;;5.70;99.90;;;;;;5030255;28;20474;-85
2022/01/20 13:59:30;;;;;;;10.63;6.55;;;5.70;99.90;;;;;;5028645;28;20017;-85
2022/01/20 14:01:56;;;;;;;11.77;7.13;;;5.80;99.90;;;;;;5028999;28;20040;-84
2022/01/20 14:04:22;;;;;;;11.63;7.60;;;5.70;99.90;;;;;;5030692;28;20021;-84
2022/01/20 14:06:48;;;;;;;14.02;8.05;;;5.80;99.90;;;;;;5028076;28;20030;-85
2022/01/20 14:09:13;;;;;;;11.88;7.53;;;5.90;99.90;;;;;;5030689;28;20391;-85
2022/01/20 14:11:40;;;;;;;15.13;7.93;;;5.80;99.90;;;;;;5027575;28;20022;-84
2022/01/20 14:14:08;;;;;;;14.27;8.00;;;5.90;99.90;;;;;;5026201;28;20559;-84
2022/01/20 14:16:34;;;;;;;12.75;7.50;;;5.90;99.90;;;;;;5030063;28;20438;-84
2022/01/20 14:19:00;;;;;;;14.35;8.43;;;5.90;99.90;;;;;;5028812;28;20618;-84
2022/01/20 14:21:26;;;;;;;14.00;8.68;;;5.90;99.90;;;;;;5028260;28;20410;-84